Tropical Cyclones
[Index]
Main Index Home Page Stock Weather Photos Extreme Storms Discussion Storm News and Storm Chasing Reports Tropical Cyclones / Hurricanes / Typhoons Weather Data and Links Wild Fires / Bushfires Weather Observation Techniques Weather Picture Catalogue Tornado Pictures and Reports Stock Video Footage and DVDs for sale
Season 2002-2003 Tropical Cyclone YOLANDE Track Map
Season 2002-2003 Summaries (Operational Data): [AU] [SIO] [SPAC] [SH]
<<- Previous TC | 2002-2003 Season | Next TC ->>

click for intensity scale information  Lat/long Grid: Show Hide

 Date Labels: Show Hide

Operational Tropical Cyclone Data : JTWC Advisories

Name: YOLANDE
Number: 0304

29 Nov 2002 21:00 UTC to 06 Dec 2002 06:00 UTC

    date/time    lat    long     hPa   cat  kts
2002-11-29 21   11.5   178.0     999         25          
2002-11-30 06   10.0   179.0    1000         25          
2002-11-30 21   11.0   180.0    1002         25          
2002-12-01 08   13.0   178.5W   1000         25          
2002-12-01 21   14.0   178.0W   1001         25          
2002-12-02 06   15.6   178.2W   1002         25          
2002-12-02 18   16.0   177.0W   1002         25          
2002-12-03 06   15.7   177.9W   1002         25          
2002-12-03 18   17.0   179.0W   1000         25          
2002-12-03 21   16.0   178.0W   1000         30          
2002-12-04 00   16.8   177.9W   1000         30          
2002-12-04 06   17.9   177.0W   1000         30          
2002-12-04 12   19.3   176.5W    998         30          
2002-12-04 18   20.0   175.0W    998         30          
2002-12-04 23   20.4   174.7W    995    1    35          
2002-12-05 00   21.4   173.5W    995    1    35          
2002-12-05 06   21.0   173.2W    995    1    35          
2002-12-05 12   21.8   172.2W    996         30          
2002-12-05 18   22.8   171.2W    996         30          
2002-12-06 00   23.2   169.3W    996         30          
2002-12-06 06   24.0   168.6W    996         30          
Winds are 10-min average.

Tropical cyclone tracks developed by Michael Bath using operational warnings and advisories and Google Maps.


[Australian Severe Weather index] [Copyright Notice] [Email Contacts] [Search This Site] [Privacy Policy]
Document: tropical_cyclone_yolande.htm Updated: 2 May 2017